ADDS TAF Board (Experimental) INFO

IDs: Format: Expanded Condensed

Updated at: 0203 UTC 22 Dec 2014

KSFO - San Francisco Intl, CA, US

Issued at 2320 UTC 21 Dec 2014
Time0156Z22/03Z22/04Z22/05Z22/06Z22/07Z22/08Z22/09Z22/10Z22/11Z22/12Z22/13Z22/14Z22/15Z
TypeOBSPRVLPRVLPRVLPRVLPRVLPRVLPRVLPRVLPRVLPRVLPRVLPRVLPRVL
VIS10>6>6>6>6>6>65555555
CIG81212121212127777777
CoverOVCBKNBKNBKNBKNBKNBKNOVCOVCOVCOVCOVCOVCOVC
FltCatIFRMVFRMVFRMVFRMVFRMVFRMVFRIFRIFRIFRIFRIFRIFRIFR
WX--------------BRBRBRBRBRBRBR
WDir280290290290290290290300300300300300300300
WSpd177777774444444
WGst----------------------------
R01/19
XWnd167777774444444
HWnd-5-1-1-1-1-1-10000000
R10/28
XWnd-5-1-1-1-1-1-10000000
HWnd-16-7-7-7-7-7-7-4-4-4-4-4-4-4
Raw TAF
KSFO 212320Z 2200/2306 28012KT P6SM FEW006 BKN009
  TEMPO 2200/2201 SCT009 BKN025
  FM220300 29007KT P6SM SCT009 BKN012
  FM220900 30004KT 5SM BR BKN007 OVC012
  FM221800 31005KT P6SM SCT007 OVC015
  FM222300 29011KT P6SM BKN025


Raw METAR
KSFO 220156Z 28017KT 10SM SCT005 BKN008 OVC011 16/16 A3027 RMK AO2 SLP251 T01610156

TAF Board Legend

Hazard VFR MVFR IFR LIFR
Visibility (sm) >5 3≤X≤5 1≤X<3 <1
Ceiling (100 ft) >30 10≤X≤30 5≤X<10 <5
Wind Speed (kt) <10 10≤X<20 20≤X<30 ≥30
Wind Gust (kt) <15 15≤X<25 25≤X<35 ≥35
Weather No Wx Reported VCTS,-TS,-FZRA TS,FZRA +TS,+FZRA


Page loaded:  02:03 UTC  |   06:03 PM Pacific  |   07:03 PM Mountain  |   08:03 PM Central  |   09:03 PM Eastern

 

ADVISORIES

FORECASTS

FORECASTS

OBSERVATIONS

USER TOOLS

ABOUT US